Time;durP1;ratioP1;P1;durP2;ratioP2;P2;SDS_P1;SDS_P2;PMS_P1;PMS_P2;Temp;Humidity;BMP_temperature;BMP_pressure;BME280_temperature;BME280_humidity;BME280_pressure;Samples;Min_cycle;Max_cycle;Signal;HPM_P1;HPM_P2
2022/01/22 00:00:50;;;;;;;5.93;4.50;;;;;;;;;;4635225;28;10000052;-78
2022/01/22 00:03:16;;;;;;;5.35;4.28;;;;;;;;;;4977764;28;20026;-78
2022/01/22 00:05:42;;;;;;;4.85;4.07;;;;;;;;;;4976412;28;20027;-78
2022/01/22 00:08:08;;;;;;;7.10;4.75;;;;;;;;;;4978815;28;20026;-77
2022/01/22 00:10:34;;;;;;;5.13;4.00;;;;;;;;;;4982923;28;20537;-77
2022/01/22 00:15:28;;;;;;;5.93;4.60;;;;;;;;;;4983846;28;20042;-77
2022/01/22 00:17:54;;;;;;;5.75;4.55;;;;;;;;;;4983340;28;20151;-77
2022/01/22 00:20:22;;;;;;;5.38;4.43;;;;;;;;;;4975248;28;20022;-79
2022/01/22 00:22:48;;;;;;;5.93;4.07;;;;;;;;;;4978826;28;20031;-77
2022/01/22 00:25:14;;;;;;;3.22;2.92;;;;;;;;;;4982076;28;20102;-77
2022/01/22 00:27:42;;;;;;;4.10;2.63;;;;;;;;;;4977093;28;20041;-77
2022/01/22 00:30:09;;;;;;;4.65;2.72;;;;;;;;;;4982731;28;20046;-77
2022/01/22 00:32:35;;;;;;;3.00;2.70;;;;;;;;;;4983035;28;20030;-77
2022/01/22 00:35:01;;;;;;;2.50;2.30;;;;;;;;;;4980893;28;20072;-77
2022/01/22 00:37:27;;;;;;;3.40;2.30;;;;;;;;;;4981105;28;20181;-79
2022/01/22 00:39:53;;;;;;;2.40;2.20;;;;;;;;;;4974509;28;20575;-79
2022/01/22 00:42:21;;;;;;;2.55;1.70;;;;;;;;;;4985173;28;20053;-77
2022/01/22 00:44:49;;;;;;;2.50;1.70;;;;;;;;;;4981983;28;20445;-77
2022/01/22 00:47:16;;;;;;;1.92;1.80;;;;;;;;;;4977830;28;20061;-76
2022/01/22 00:49:42;;;;;;;2.55;2.00;;;;;;;;;;4987337;28;20030;-77
2022/01/22 00:52:08;;;;;;;2.30;1.77;;;;;;;;;;4973293;28;20026;-77
2022/01/22 00:54:34;;;;;;;3.10;2.15;;;;;;;;;;4982332;28;20057;-77
2022/01/22 00:57:00;;;;;;;2.72;1.30;;;;;;;;;;4981779;28;20030;-77
2022/01/22 00:59:26;;;;;;;2.05;1.75;;;;;;;;;;4985895;28;20529;-77
2022/01/22 01:01:52;;;;;;;2.35;1.52;;;;;;;;;;4978677;28;20038;-78
2022/01/22 01:04:18;;;;;;;1.20;1.10;;;;;;;;;;4975282;28;20395;-80
2022/01/22 01:06:44;;;;;;;1.90;1.30;;;;;;;;;;4979216;28;20027;-77
2022/01/22 01:09:11;;;;;;;1.15;1.05;;;;;;;;;;4978515;28;20022;-77
2022/01/22 01:11:44;;;;;;;1.23;1.13;;;;;;;;;;4980256;28;20026;-78
2022/01/22 01:14:15;;;;;;;0.80;0.80;;;;;;;;;;4984937;28;20031;-77
2022/01/22 01:17:08;;;;;;;2.60;0.85;;;;;;;;;;4982635;28;20106;-77
2022/01/22 01:33:59;;;;;;;0.80;0.70;;;;;;;;;;4977887;28;20526;-77
2022/01/22 01:36:04;;;;;;;0.60;0.60;;;;;;;;;;4975859;28;20418;-77
2022/01/22 01:38:35;;;;;;;0.52;0.52;;;;;;;;;;4981579;28;20034;-77
2022/01/22 01:41:09;;;;;;;0.80;0.70;;;;;;;;;;4984049;28;20030;-77
2022/01/22 01:43:37;;;;;;;1.38;0.60;;;;;;;;;;4985441;28;20037;-77
2022/01/22 01:46:03;;;;;;;1.67;0.60;;;;;;;;;;4984102;28;20033;-77
2022/01/22 01:48:36;;;;;;;0.63;0.63;;;;;;;;;;4985004;28;20121;-77
2022/01/22 01:51:02;;;;;;;;;;;;;;;;;;4985655;28;20170;-77
2022/01/22 01:53:49;;;;;;;0.52;0.52;;;;;;;;;;4983944;28;20403;-77
2022/01/22 01:59:15;;;;;;;0.60;0.60;;;;;;;;;;4937078;28;20043;-79
2022/01/22 02:01:41;;;;;;;1.00;0.70;;;;;;;;;;4979779;28;20022;-77
2022/01/22 02:04:10;;;;;;;1.10;1.00;;;;;;;;;;4978408;28;20317;-77
2022/01/22 02:06:36;;;;;;;0.60;0.60;;;;;;;;;;4977092;28;20100;-77
2022/01/22 02:09:07;;;;;;;0.80;0.52;;;;;;;;;;4978296;28;20523;-77
2022/01/22 02:11:33;;;;;;;0.70;0.70;;;;;;;;;;4983754;28;20089;-77
2022/01/22 02:24:59;;;;;;;0.80;0.77;;;;;;;;;;4988266;28;20037;-77
2022/01/22 02:27:25;;;;;;;0.70;0.70;;;;;;;;;;4988873;28;20433;-77
2022/01/22 02:29:51;;;;;;;1.17;0.70;;;;;;;;;;4976807;28;20054;-76
2022/01/22 02:35:13;;;;;;;0.55;0.55;;;;;;;;;;4983677;28;20057;-77
2022/01/22 02:37:45;;;;;;;0.70;0.70;;;;;;;;;;4980291;28;20121;-77
2022/01/22 02:40:17;;;;;;;0.70;0.70;;;;;;;;;;4980926;28;20118;-77
2022/01/22 02:42:46;;;;;;;0.82;0.80;;;;;;;;;;4984036;28;20034;-77
2022/01/22 02:45:17;;;;;;;0.70;0.70;;;;;;;;;;4986364;28;20031;-79
2022/01/22 02:47:43;;;;;;;1.02;0.98;;;;;;;;;;4972816;28;20031;-77
2022/01/22 02:50:10;;;;;;;1.48;1.10;;;;;;;;;;4979976;28;20129;-77
2022/01/22 02:52:36;;;;;;;1.58;1.00;;;;;;;;;;4980009;28;20034;-77
2022/01/22 02:55:05;;;;;;;1.98;1.30;;;;;;;;;;4984401;28;20018;-77
2022/01/22 02:57:32;;;;;;;1.10;1.00;;;;;;;;;;4981167;28;20026;-77
2022/01/22 03:00:00;;;;;;;0.80;0.75;;;;;;;;;;4985812;28;20031;-77
2022/01/22 03:02:26;;;;;;;0.60;0.60;;;;;;;;;;4981196;28;20096;-77
2022/01/22 03:04:52;;;;;;;0.60;0.60;;;;;;;;;;4980083;28;20023;-76
2022/01/22 03:07:18;;;;;;;1.25;0.88;;;;;;;;;;4973026;28;20039;-77
2022/01/22 03:09:47;;;;;;;0.82;0.73;;;;;;;;;;4975931;28;20114;-77
2022/01/22 03:12:44;;;;;;;0.98;0.88;;;;;;;;;;4980533;28;20394;-76
2022/01/22 03:18:05;;;;;;;1.10;1.00;;;;;;;;;;4982004;28;20222;-79
2022/01/22 03:27:17;;;;;;;1.08;0.90;;;;;;;;;;4976025;28;20035;-79
2022/01/22 03:28:53;;;;;;;1.67;0.80;;;;;;;;;;4979670;28;20489;-79
2022/01/22 03:31:19;;;;;;;1.05;0.80;;;;;;;;;;4984026;28;20065;-77
2022/01/22 03:33:45;;;;;;;0.70;0.70;;;;;;;;;;4978138;28;22764;-78
2022/01/22 03:36:11;;;;;;;0.80;0.80;;;;;;;;;;4981573;28;20027;-77
2022/01/22 03:38:37;;;;;;;0.80;0.80;;;;;;;;;;4980847;28;20121;-78
2022/01/22 03:41:03;;;;;;;1.38;0.93;;;;;;;;;;4978673;28;20439;-78
2022/01/22 03:43:30;;;;;;;0.70;0.70;;;;;;;;;;4973520;28;20145;-78
2022/01/22 03:45:56;;;;;;;0.90;0.90;;;;;;;;;;4974688;28;20034;-79
2022/01/22 03:48:22;;;;;;;0.82;0.82;;;;;;;;;;4977218;28;20030;-79
2022/01/22 03:50:49;;;;;;;0.90;0.90;;;;;;;;;;4976878;28;20046;-79
2022/01/22 03:53:15;;;;;;;1.08;0.90;;;;;;;;;;4975897;28;20459;-78
2022/01/22 03:58:10;;;;;;;0.98;0.75;;;;;;;;;;4968657;28;20332;-78
2022/01/22 04:00:36;;;;;;;1.75;0.85;;;;;;;;;;4973214;28;20042;-79
2022/01/22 04:05:33;;;;;;;0.90;0.90;;;;;;;;;;4986390;28;20442;-77
2022/01/22 04:10:28;;;;;;;0.98;0.90;;;;;;;;;;4981402;28;20110;-79
2022/01/22 04:13:03;;;;;;;1.00;0.90;;;;;;;;;;4981490;28;20034;-79
2022/01/22 04:15:32;;;;;;;2.00;1.10;;;;;;;;;;4986077;28;20087;-79
2022/01/22 04:26:22;;;;;;;1.50;1.10;;;4.90;99.90;;;;;;4975841;28;20060;-79
2022/01/22 04:28:48;;;;;;;2.05;1.25;;;4.80;99.90;;;;;;4973044;28;20074;-78
2022/01/22 04:31:13;;;;;;;1.27;1.05;;;4.80;99.90;;;;;;4983219;28;20487;-78
2022/01/22 04:33:39;;;;;;;1.65;1.40;;;4.80;99.90;;;;;;4981771;28;20137;-78
2022/01/22 04:36:05;;;;;;;1.30;1.20;;;4.70;99.90;;;;;;4983353;28;20030;-79
2022/01/22 04:38:30;;;;;;;2.95;1.23;;;4.80;99.90;;;;;;4979900;28;20084;-79
2022/01/22 04:40:56;;;;;;;1.42;1.30;;;4.80;99.90;;;;;;4982155;28;20129;-78
2022/01/22 04:43:22;;;;;;;1.55;1.20;;;4.80;99.90;;;;;;4981382;28;20056;-78
2022/01/22 04:46:07;;;;;;;4.82;1.98;;;4.80;99.90;;;;;;4976069;28;20089;-79
2022/01/22 04:56:53;;;;;;;2.60;1.80;;;4.80;99.90;;;;;;4980640;28;20122;-79
2022/01/22 04:59:19;;;;;;;2.67;1.80;;;4.80;99.90;;;;;;4977152;28;20105;-78
2022/01/22 05:01:45;;;;;;;2.42;1.42;;;4.80;99.90;;;;;;4975606;28;20471;-78
2022/01/22 05:04:10;;;;;;;2.13;1.70;;;4.80;99.90;;;;;;4975764;28;20054;-78
2022/01/22 05:06:36;;;;;;;3.58;1.95;;;4.80;99.90;;;;;;4981903;28;20054;-78
2022/01/22 05:09:02;;;;;;;2.35;1.70;;;4.80;99.90;;;;;;4982058;28;20038;-78
2022/01/22 05:11:27;;;;;;;3.35;2.10;;;4.90;99.90;;;;;;4968297;28;20299;-78
2022/01/22 05:13:53;;;;;;;2.45;1.85;;;4.90;99.90;;;;;;4984416;28;20462;-78
2022/01/22 05:16:20;;;;;;;2.45;2.00;;;4.90;99.90;;;;;;4979353;28;20034;-78
2022/01/22 05:19:13;;;;;;;3.92;2.25;;;4.90;99.90;;;;;;4979149;28;20030;-78
2022/01/22 05:21:34;;;;;;;3.85;2.25;;;4.90;99.90;;;;;;4983296;28;20034;-78
2022/01/22 05:24:04;;;;;;;2.83;1.95;;;4.90;99.90;;;;;;4974344;28;20026;-78
2022/01/22 05:29:23;;;;;;;2.95;2.22;;;4.90;99.90;;;;;;4972275;28;20046;-78
2022/01/22 05:37:04;;;;;;;3.55;2.03;;;4.90;99.90;;;;;;4975695;28;20549;-78
2022/01/22 05:39:31;;;;;;;2.60;1.88;;;4.90;99.90;;;;;;4986406;28;20035;-78
2022/01/22 05:42:00;;;;;;;3.15;2.17;;;4.90;99.90;;;;;;4969147;28;20046;-78
2022/01/22 05:44:26;;;;;;;3.08;2.15;;;4.90;99.90;;;;;;4979238;28;20022;-78
2022/01/22 05:46:54;;;;;;;2.90;2.08;;;4.90;99.90;;;;;;4981841;28;20390;-78
2022/01/22 05:49:22;;;;;;;3.70;2.00;;;4.90;99.90;;;;;;4972474;28;20108;-79
2022/01/22 05:51:49;;;;;;;2.90;1.95;;;4.90;99.90;;;;;;4981659;28;20037;-78
2022/01/22 05:55:24;;;;;;;2.72;1.80;;;4.90;99.90;;;;;;4978799;28;20030;-78
2022/01/22 05:59:47;;;;;;;2.80;1.95;;;5.00;99.90;;;;;;4978844;28;20034;-78
2022/01/22 06:02:16;;;;;;;5.20;2.17;;;5.00;99.90;;;;;;4987676;28;20014;-79
2022/01/22 06:04:43;;;;;;;2.50;2.00;;;5.00;99.90;;;;;;4981493;28;20684;-78
2022/01/22 06:07:09;;;;;;;2.65;1.70;;;5.00;99.90;;;;;;4980954;28;20030;-78
2022/01/22 06:09:50;;;;;;;2.25;1.90;;;5.00;99.90;;;;;;4981449;28;20019;-79
2022/01/22 06:12:17;;;;;;;3.53;1.88;;;5.00;99.90;;;;;;4985245;28;20101;-78
2022/01/22 06:14:43;;;;;;;3.13;1.88;;;5.00;99.90;;;;;;4983820;28;20054;-79
2022/01/22 06:17:09;;;;;;;2.33;2.03;;;5.00;99.90;;;;;;4981194;28;20470;-78
2022/01/22 06:19:35;;;;;;;2.38;1.77;;;5.00;99.90;;;;;;4981709;28;20027;-78
2022/01/22 06:22:01;;;;;;;3.60;2.22;;;5.10;99.90;;;;;;4975653;28;20554;-78
2022/01/22 06:24:26;;;;;;;2.88;2.40;;;5.10;99.90;;;;;;4974583;28;20026;-78
2022/01/22 06:26:52;;;;;;;3.15;2.17;;;5.10;99.90;;;;;;4978400;28;20034;-78
2022/01/22 06:29:18;;;;;;;3.20;2.30;;;5.10;99.90;;;;;;4625172;28;10000487;-78
2022/01/22 06:31:44;;;;;;;3.00;2.30;;;5.10;99.90;;;;;;4965447;28;20339;-78
2022/01/22 06:34:09;;;;;;;4.68;2.58;;;5.10;99.90;;;;;;4957530;28;20496;-78
2022/01/22 06:36:35;;;;;;;2.72;2.00;;;5.10;99.90;;;;;;4956385;28;20410;-79
2022/01/22 06:39:14;;;;;;;3.65;2.53;;;5.10;99.90;;;;;;4960031;28;20427;-78
2022/01/22 06:41:46;;;;;;;2.95;2.20;;;5.10;99.90;;;;;;4959340;28;20118;-79
2022/01/22 06:44:15;;;;;;;4.07;2.40;;;5.10;99.90;;;;;;4956901;28;20622;-80
2022/01/22 06:46:43;;;;;;;3.08;2.38;;;5.10;99.90;;;;;;4962094;28;20039;-79
2022/01/22 06:49:09;;;;;;;4.57;2.30;;;5.10;99.90;;;;;;4956006;28;20028;-79
2022/01/22 06:51:34;;;;;;;2.88;2.10;;;5.10;99.90;;;;;;4955205;28;20041;-80
2022/01/22 06:54:02;;;;;;;3.92;2.05;;;5.10;99.90;;;;;;4949218;28;20039;-79
2022/01/22 06:56:29;;;;;;;3.33;2.20;;;5.10;99.90;;;;;;4957146;28;20039;-79
2022/01/22 06:58:57;;;;;;;3.63;2.17;;;5.10;99.90;;;;;;4957269;28;20070;-79
2022/01/22 07:01:23;;;;;;;1.95;1.73;;;5.10;99.90;;;;;;4951640;28;20096;-80
2022/01/22 07:03:49;;;;;;;4.60;2.10;;;5.10;99.90;;;;;;4959882;28;20033;-80
2022/01/22 07:06:15;;;;;;;2.15;1.60;;;5.10;99.90;;;;;;4957803;28;20062;-80
2022/01/22 07:08:40;;;;;;;2.20;1.50;;;5.10;99.90;;;;;;4967675;28;20426;-79
2022/01/22 07:11:06;;;;;;;2.58;1.67;;;5.10;99.90;;;;;;4964998;28;20077;-80
2022/01/22 07:13:33;;;;;;;2.00;1.40;;;5.10;99.90;;;;;;4964241;28;21146;-80
2022/01/22 07:15:58;;;;;;;2.88;1.30;;;5.10;99.90;;;;;;4958510;28;21603;-79
2022/01/22 07:18:24;;;;;;;1.65;1.30;;;5.10;99.90;;;;;;4963660;28;20484;-79
2022/01/22 07:20:51;;;;;;;1.70;1.35;;;5.10;99.90;;;;;;4961852;28;20187;-80
2022/01/22 07:23:52;;;;;;;7.57;1.42;;;5.10;99.90;;;;;;4960861;28;20465;-79
2022/01/22 07:26:08;;;;;;;1.80;1.50;;;5.10;99.90;;;;;;4960843;28;20468;-79
2022/01/22 07:28:34;;;;;;;2.63;1.40;;;5.10;99.90;;;;;;4966802;28;20464;-79
2022/01/22 07:31:00;;;;;;;1.60;1.48;;;5.10;99.90;;;;;;4986056;28;20037;-79
2022/01/22 07:33:27;;;;;;;1.83;1.20;;;5.10;99.90;;;;;;4984101;28;20042;-79
2022/01/22 07:35:53;;;;;;;2.25;1.40;;;;;;;;;;4982372;28;20037;-79
2022/01/22 07:38:20;;;;;;;1.80;1.50;;;5.10;99.90;;;;;;4987110;28;20024;-80
2022/01/22 07:40:46;;;;;;;2.38;1.50;;;5.10;99.90;;;;;;4979697;28;20051;-79
2022/01/22 07:43:11;;;;;;;2.30;1.40;;;5.10;99.90;;;;;;4986111;28;20057;-79
2022/01/22 07:45:37;;;;;;;1.60;1.50;;;5.10;99.90;;;;;;4989149;28;20572;-79
2022/01/22 07:48:03;;;;;;;2.88;1.63;;;5.10;99.90;;;;;;4978589;28;20034;-80
2022/01/22 07:50:29;;;;;;;2.47;1.90;;;5.10;99.90;;;;;;4987724;28;20129;-80
2022/01/22 07:52:54;;;;;;;3.17;1.88;;;5.20;99.90;;;;;;4982645;28;20453;-80
2022/01/22 07:55:22;;;;;;;2.63;1.83;;;5.20;99.90;;;;;;4981042;28;20060;-79
2022/01/22 07:57:48;;;;;;;4.30;2.30;;;5.20;99.90;;;;;;4983901;28;20026;-80
2022/01/22 08:00:16;;;;;;;2.63;2.00;;;5.20;99.90;;;;;;4981854;28;20904;-80
2022/01/22 08:02:42;;;;;;;4.05;2.40;;;5.20;99.90;;;;;;4983897;28;20039;-80
2022/01/22 08:05:08;;;;;;;4.15;2.65;;;5.20;99.90;;;;;;4986717;28;20026;-79
2022/01/22 08:07:34;;;;;;;3.75;2.72;;;5.20;99.90;;;;;;4984374;28;20030;-80
2022/01/22 08:10:00;;;;;;;5.53;2.90;;;5.30;99.90;;;;;;4977652;28;20034;-80
2022/01/22 08:12:26;;;;;;;5.63;3.00;;;5.30;99.90;;;;;;4979228;28;20106;-80
2022/01/22 08:14:51;;;;;;;4.72;3.08;;;5.30;99.90;;;;;;4984702;28;20122;-79
2022/01/22 08:17:17;;;;;;;5.55;3.47;;;5.30;99.90;;;;;;4981168;28;20054;-80
2022/01/22 08:19:43;;;;;;;4.30;3.20;;;5.30;99.90;;;;;;4983755;28;20026;-80
2022/01/22 08:22:09;;;;;;;5.32;3.33;;;5.30;99.90;;;;;;4985193;28;20038;-80
2022/01/22 08:24:35;;;;;;;4.78;3.30;;;5.50;99.90;;;;;;4983912;28;20023;-80
2022/01/22 08:29:32;;;;;;;3.95;3.08;;;5.50;99.90;;;;;;4980848;28;20490;-80
2022/01/22 08:37:26;;;;;;;5.05;3.25;;;5.50;99.90;;;;;;4982059;28;20117;-80
2022/01/22 08:39:51;;;;;;;5.60;3.15;;;5.50;99.90;;;;;;4981565;28;20062;-80
2022/01/22 08:42:17;;;;;;;4.15;2.80;;;5.50;99.90;;;;;;4982262;28;20042;-81
2022/01/22 08:44:43;;;;;;;5.72;2.95;;;5.50;99.90;;;;;;4982885;28;20035;-79
2022/01/22 08:47:09;;;;;;;3.97;2.60;;;5.50;99.90;;;;;;4977375;28;20548;-79
2022/01/22 08:49:35;;;;;;;3.30;2.20;;;5.50;99.90;;;;;;4983099;28;20030;-79
2022/01/22 08:52:01;;;;;;;2.72;2.00;;;5.60;99.90;;;;;;4976689;28;20477;-78
2022/01/22 08:54:27;;;;;;;3.35;2.20;;;5.60;99.90;;;;;;4979710;28;20026;-79
2022/01/22 08:56:53;;;;;;;3.45;2.00;;;;;;;;;;4977648;28;20030;-78
2022/01/22 08:59:19;;;;;;;2.58;1.90;;;;;;;;;;4979189;28;20057;-79
2022/01/22 09:01:48;;;;;;;2.35;1.60;;;5.70;99.90;;;;;;4973094;28;20395;-79
2022/01/22 09:04:14;;;;;;;3.38;2.00;;;5.60;99.90;;;;;;4977473;28;20061;-79
2022/01/22 09:06:40;;;;;;;2.00;1.80;;;5.50;99.90;;;;;;4979931;28;20035;-79
2022/01/22 09:09:11;;;;;;;4.57;2.17;;;5.60;99.90;;;;;;4979668;28;20034;-79
2022/01/22 09:11:38;;;;;;;2.78;1.40;;;5.60;99.90;;;;;;4984752;28;20080;-79
2022/01/22 09:14:06;;;;;;;2.67;1.80;;;5.70;99.90;;;;;;4981539;28;20112;-79
2022/01/22 09:16:32;;;;;;;3.90;1.67;;;5.60;99.90;;;;;;4982268;28;20031;-79
2022/01/22 09:19:05;;;;;;;1.80;1.55;;;5.60;99.90;;;;;;4983462;28;20089;-79
2022/01/22 09:21:35;;;;;;;;;;;5.70;99.90;;;;;;4982557;28;20390;-79
2022/01/22 09:24:00;;;;;;;1.30;1.17;;;5.70;99.90;;;;;;4974748;28;19910;-79
2022/01/22 09:26:27;;;;;;;2.05;1.33;;;5.70;99.90;;;;;;4978442;28;20498;-79
2022/01/22 09:28:55;;;;;;;4.63;1.42;;;5.70;99.90;;;;;;4981915;28;20169;-78
2022/01/22 09:31:21;;;;;;;1.80;1.42;;;5.80;99.90;;;;;;4978151;28;20517;-79
2022/01/22 09:33:47;;;;;;;2.15;1.42;;;5.90;99.90;;;;;;4983028;28;20042;-79
2022/01/22 09:36:13;;;;;;;1.42;1.30;;;5.90;99.90;;;;;;4979337;28;20228;-79
2022/01/22 09:38:39;;;;;;;1.50;1.40;;;5.90;99.90;;;;;;4972567;28;20089;-79
2022/01/22 09:41:05;;;;;;;1.58;1.20;;;5.90;99.90;;;;;;4982583;28;20102;-79
2022/01/22 09:43:31;;;;;;;2.05;1.10;;;5.90;99.90;;;;;;4973427;28;20778;-79
2022/01/22 09:45:57;;;;;;;1.10;1.00;;;5.90;99.90;;;;;;4983237;28;20114;-79
2022/01/22 09:48:23;;;;;;;2.05;0.90;;;5.90;99.90;;;;;;4986095;28;20356;-79
2022/01/22 09:50:49;;;;;;;2.60;1.17;;;5.90;99.90;;;;;;4979429;28;20034;-78
2022/01/22 09:53:14;;;;;;;1.10;1.00;;;5.90;99.90;;;;;;4983769;28;20323;-78
2022/01/22 09:55:40;;;;;;;1.65;1.15;;;5.90;99.90;;;;;;4980239;28;20038;-79
2022/01/22 09:58:06;;;;;;;1.20;1.10;;;6.00;99.90;;;;;;4974876;28;20022;-79
2022/01/22 10:00:32;;;;;;;1.25;0.90;;;5.90;99.90;;;;;;4976201;28;20026;-81
2022/01/22 10:02:58;;;;;;;1.65;1.20;;;5.90;99.90;;;;;;4971346;28;20077;-81
2022/01/22 10:05:34;;;;;;;1.30;1.00;;;6.00;99.90;;;;;;4975424;28;20023;-78
2022/01/22 10:08:21;;;;;;;1.40;1.25;;;6.10;99.90;;;;;;4978720;28;20034;-76
2022/01/22 10:10:48;;;;;;;1.52;1.15;;;6.10;99.90;;;;;;4979062;28;20157;-77
2022/01/22 10:13:18;;;;;;;2.72;1.30;;;6.10;99.90;;;;;;4981089;28;20113;-79
2022/01/22 10:15:44;;;;;;;1.83;1.17;;;6.10;99.90;;;;;;4976624;28;20088;-78
2022/01/22 10:18:09;;;;;;;1.83;1.33;;;6.10;99.90;;;;;;4982054;28;20505;-77
2022/01/22 10:20:40;;;;;;;1.23;0.90;;;6.10;99.90;;;;;;4978187;28;20578;-80
2022/01/22 10:23:10;;;;;;;1.90;1.00;;;6.20;99.90;;;;;;4978442;28;20076;-77
2022/01/22 10:25:44;;;;;;;1.35;0.93;;;6.20;99.90;;;;;;4968249;28;20038;-81
2022/01/22 10:28:20;;;;;;;2.72;0.80;;;6.20;99.90;;;;;;4974626;28;20093;-78
2022/01/22 10:30:51;;;;;;;1.20;0.80;;;6.20;99.90;;;;;;4978828;28;20085;-78
2022/01/22 10:33:30;;;;;;;0.60;0.60;;;6.20;99.90;;;;;;4980412;28;20053;-78
2022/01/22 10:36:16;;;;;;;1.35;0.70;;;6.30;99.90;;;;;;4979356;28;20037;-77
2022/01/22 10:38:53;;;;;;;0.70;0.60;;;6.20;99.90;;;;;;4982307;28;20038;-79
2022/01/22 10:41:42;;;;;;;2.05;0.70;;;6.30;99.90;;;;;;4976233;28;20454;-79
2022/01/22 10:44:14;;;;;;;2.35;0.80;;;6.10;99.90;;;;;;4968775;28;20078;-79
2022/01/22 10:49:21;;;;;;;0.75;0.57;;;6.10;99.90;;;;;;4986711;28;20032;-78
2022/01/22 10:52:00;;;;;;;2.15;0.60;;;6.30;99.90;;;;;;4974847;28;20034;-79
2022/01/22 10:54:28;;;;;;;0.82;0.63;;;6.40;99.90;;;;;;4984769;28;20596;-79
2022/01/22 10:57:08;;;;;;;0.77;0.70;;;6.30;99.90;;;;;;4984582;28;20049;-79
2022/01/22 10:59:33;;;;;;;0.85;0.80;;;6.20;99.90;;;;;;4976267;28;20031;-79
2022/01/22 11:02:00;;;;;;;1.40;0.80;;;6.30;99.90;;;;;;4979928;28;20089;-79
2022/01/22 11:04:39;;;;;;;1.73;0.65;;;6.40;99.90;;;;;;4982279;28;20117;-78
2022/01/22 11:07:06;;;;;;;0.88;0.68;;;6.40;99.90;;;;;;4979408;28;20027;-78
2022/01/22 11:09:34;;;;;;;1.15;0.70;;;6.30;99.90;;;;;;4977946;28;20034;-79
2022/01/22 11:12:02;;;;;;;0.98;0.77;;;6.30;99.90;;;;;;4979173;28;20022;-78
2022/01/22 11:14:29;;;;;;;0.60;0.60;;;6.40;99.90;;;;;;4971070;28;20023;-80
2022/01/22 11:16:56;;;;;;;0.68;0.68;;;6.40;99.90;;;;;;4973284;28;20413;-79
2022/01/22 11:19:24;;;;;;;0.70;0.60;;;6.40;99.90;;;;;;4981330;28;20030;-79
2022/01/22 11:21:52;;;;;;;0.50;0.50;;;6.50;99.90;;;;;;4984262;28;20089;-79
2022/01/22 11:24:24;;;;;;;1.88;0.65;;;6.60;99.90;;;;;;4986900;28;20481;-79
2022/01/22 11:26:57;;;;;;;0.73;0.50;;;6.60;99.90;;;;;;4983055;28;20038;-79
2022/01/22 11:29:33;;;;;;;1.15;0.50;;;6.60;99.90;;;;;;4986508;28;20053;-78
2022/01/22 11:32:03;;;;;;;0.50;0.50;;;6.60;99.90;;;;;;4977521;28;20026;-82
2022/01/22 11:34:32;;;;;;;0.63;0.63;;;6.70;99.90;;;;;;4976388;28;20054;-81
2022/01/22 11:37:01;;;;;;;0.60;0.60;;;6.80;99.90;;;;;;4982286;28;20161;-80
2022/01/22 11:39:28;;;;;;;1.25;0.60;;;6.80;99.90;;;;;;4975754;28;20109;-80
2022/01/22 11:41:56;;;;;;;0.57;0.45;;;6.90;99.90;;;;;;4978734;28;20038;-81
2022/01/22 11:44:50;;;;;;;0.90;0.40;;;6.90;99.90;;;;;;4980031;28;20034;-80
2022/01/22 11:47:23;;;;;;;2.75;0.40;;;7.00;99.90;;;;;;4985273;28;20554;-79
2022/01/22 11:50:09;;;;;;;0.40;0.40;;;7.10;99.90;;;;;;4974959;28;20588;-79
2022/01/22 11:52:38;;;;;;;0.55;0.30;;;7.20;99.90;;;;;;4963384;28;20245;-79
2022/01/22 11:55:11;;;;;;;0.50;0.40;;;7.30;99.90;;;;;;4974316;28;20372;-79
2022/01/22 11:57:38;;;;;;;0.40;0.40;;;7.20;99.90;;;;;;4978652;28;20092;-79
2022/01/22 12:00:28;;;;;;;0.40;0.30;;;7.30;99.90;;;;;;4979310;28;20109;-79
2022/01/22 12:03:03;;;;;;;0.70;0.40;;;7.30;99.90;;;;;;4985604;28;20034;-79
2022/01/22 12:05:29;;;;;;;0.70;0.40;;;7.30;99.90;;;;;;4983410;28;20022;-80
2022/01/22 12:08:01;;;;;;;0.57;0.57;;;7.30;99.90;;;;;;4977369;28;20065;-80
2022/01/22 12:10:38;;;;;;;0.60;0.60;;;7.30;99.90;;;;;;4976616;28;20033;-79
2022/01/22 12:16:13;;;;;;;2.05;0.60;;;7.20;99.90;;;;;;4979794;28;20033;-79
2022/01/22 12:18:46;;;;;;;1.40;1.13;;;7.20;99.90;;;;;;4981126;28;20062;-79
2022/01/22 12:21:35;;;;;;;1.63;1.00;;;7.10;99.90;;;;;;4983480;28;20037;-80
2022/01/22 12:24:03;;;;;;;1.33;0.90;;;7.10;99.90;;;;;;4984091;28;20061;-80
2022/01/22 12:26:41;;;;;;;1.73;1.00;;;7.10;99.90;;;;;;4982008;28;20035;-80
2022/01/22 12:29:34;;;;;;;4.68;1.60;;;7.10;99.90;;;;;;4975745;28;20138;-79
2022/01/22 12:32:07;;;;;;;2.33;0.80;;;7.10;99.90;;;;;;4976214;28;20249;-78
2022/01/22 12:34:54;;;;;;;1.52;0.80;;;7.10;99.90;;;;;;4985839;28;20061;-78
2022/01/22 12:37:21;;;;;;;1.35;0.65;;;7.00;99.90;;;;;;4981374;28;20034;-79
2022/01/22 12:39:50;;;;;;;2.03;1.58;;;7.00;99.90;;;;;;4983159;28;20168;-78
2022/01/22 12:42:45;;;;;;;1.50;0.60;;;6.90;99.90;;;;;;4978275;28;20038;-78
2022/01/22 12:45:07;;;;;;;1.50;1.13;;;6.90;99.90;;;;;;4976347;28;20069;-78
2022/01/22 12:47:35;;;;;;;1.95;0.68;;;6.90;99.90;;;;;;4970697;28;20046;-78
2022/01/22 12:50:08;;;;;;;0.60;0.60;;;6.90;99.90;;;;;;4976926;28;20034;-78
2022/01/22 12:52:35;;;;;;;1.00;0.60;;;7.00;99.90;;;;;;4978934;28;20050;-78
2022/01/22 12:55:15;;;;;;;1.98;0.75;;;7.00;99.90;;;;;;4969806;28;20039;-80
2022/01/22 12:57:44;;;;;;;0.77;0.60;;;6.90;99.90;;;;;;4723233;28;10000934;-79
2022/01/22 13:02:37;;;;;;;0.90;0.77;;;6.90;99.90;;;;;;4978412;28;20071;-79
2022/01/22 13:05:03;;;;;;;1.20;0.70;;;6.90;99.90;;;;;;4973587;28;20510;-76
2022/01/22 13:07:40;;;;;;;1.20;0.80;;;6.90;99.90;;;;;;4978482;28;20030;-77
2022/01/22 13:10:07;;;;;;;0.60;0.60;;;6.90;99.90;;;;;;4972539;28;20467;-77
2022/01/22 13:12:41;;;;;;;1.05;0.70;;;6.90;99.90;;;;;;4973474;28;20030;-75
2022/01/22 13:15:10;;;;;;;1.73;0.98;;;6.90;99.90;;;;;;4981697;28;20030;-78
2022/01/22 13:17:36;;;;;;;1.95;0.80;;;6.80;99.90;;;;;;4972303;28;20046;-77
2022/01/22 13:20:05;;;;;;;2.35;1.30;;;6.90;99.90;;;;;;4975586;28;20022;-78
2022/01/22 13:22:33;;;;;;;2.08;1.50;;;6.90;99.90;;;;;;4978080;28;20057;-77
2022/01/22 13:25:07;;;;;;;1.52;1.20;;;6.90;99.90;;;;;;4978630;28;20172;-76
2022/01/22 13:27:35;;;;;;;2.78;1.15;;;7.00;99.90;;;;;;4973854;28;20030;-75
2022/01/22 13:30:00;;;;;;;1.77;1.50;;;6.90;99.90;;;;;;4969962;28;20066;-78
2022/01/22 13:32:47;;;;;;;3.20;2.25;;;6.90;99.90;;;;;;4973165;28;20084;-77
2022/01/22 13:45:02;;;;;;;0.90;0.70;;;6.80;99.90;;;;;;4977569;28;20105;-76
2022/01/22 13:49:36;;;;;;;0.50;0.50;;;6.80;99.90;;;;;;4973679;28;20140;-75
2022/01/22 13:52:05;;;;;;;1.13;0.45;;;6.90;99.90;;;;;;4979488;28;20037;-75
2022/01/22 13:54:36;;;;;;;0.55;0.40;;;6.90;99.90;;;;;;4978004;28;20113;-77
2022/01/22 13:57:06;;;;;;;0.77;0.50;;;6.80;99.90;;;;;;4980121;28;20066;-77
2022/01/22 13:59:37;;;;;;;0.50;0.40;;;6.80;99.90;;;;;;4979825;28;20109;-76
2022/01/22 14:02:28;;;;;;;0.30;0.30;;;6.90;99.90;;;;;;4977635;28;20407;-76
2022/01/22 14:05:01;;;;;;;0.85;0.50;;;6.80;99.90;;;;;;4972947;28;20109;-76
2022/01/22 14:07:31;;;;;;;0.60;0.55;;;6.80;99.90;;;;;;4970518;28;20039;-75
2022/01/22 14:09:57;;;;;;;0.73;0.50;;;6.80;99.90;;;;;;4974022;28;20069;-75
2022/01/22 14:12:25;;;;;;;0.38;0.38;;;6.80;99.90;;;;;;4976326;28;20105;-75
2022/01/22 14:15:15;;;;;;;0.40;0.40;;;6.80;99.90;;;;;;4977597;28;20038;-75
2022/01/22 14:20:34;;;;;;;0.35;0.30;;;6.80;99.90;;;;;;4983832;28;20026;-74
2022/01/22 14:23:12;;;;;;;0.55;0.47;;;6.80;99.90;;;;;;4976132;28;20608;-75
2022/01/22 14:25:54;;;;;;;1.25;0.60;;;6.80;99.90;;;;;;4976981;28;20289;-76
2022/01/22 14:28:21;;;;;;;1.02;0.50;;;6.70;99.90;;;;;;4985315;28;20088;-76
2022/01/22 14:30:48;;;;;;;0.73;0.50;;;;;;;;;;4981295;28;20113;-75
2022/01/22 14:33:15;;;;;;;1.00;0.75;;;;;;;;;;4977322;28;20090;-76
2022/01/22 14:35:42;;;;;;;1.98;0.70;;;;;;;;;;4979498;28;20037;-76
2022/01/22 14:38:25;;;;;;;0.95;0.60;;;;;;;;;;4977533;28;20038;-76
2022/01/22 14:44:04;;;;;;;0.63;0.60;;;;;;;;;;4976662;28;20724;-76
2022/01/22 14:46:52;;;;;;;0.93;0.80;;;;;;;;;;4977272;28;20034;-78
2022/01/22 14:49:18;;;;;;;1.27;0.60;;;;;;;;;;4975177;28;20298;-77
2022/01/22 14:51:44;;;;;;;0.98;0.77;;;;;;;;;;4980198;28;20029;-77
2022/01/22 14:54:10;;;;;;;1.45;0.80;;;;;;;;;;4976614;28;20035;-77
2022/01/22 14:56:36;;;;;;;1.30;1.00;;;;;;;;;;4977295;28;20038;-76
2022/01/22 14:59:02;;;;;;;1.10;0.90;;;;;;;;;;4975168;28;20983;-77
2022/01/22 15:01:28;;;;;;;0.70;0.70;;;;;;;;;;4974018;28;20085;-77
2022/01/22 15:03:54;;;;;;;1.02;0.70;;;;;;;;;;4978645;28;20052;-76
2022/01/22 15:06:20;;;;;;;2.42;1.00;;;;;;;;;;4977344;28;20030;-76
2022/01/22 15:08:46;;;;;;;4.63;2.60;;;;;;;;;;4982951;28;20476;-77
2022/01/22 15:11:12;;;;;;;2.25;1.75;;;;;;;;;;4980859;28;20035;-77
2022/01/22 15:13:38;;;;;;;3.50;2.78;;;;;;;;;;4974402;28;20042;-75
2022/01/22 15:16:04;;;;;;;2.78;2.42;;;;;;;;;;4978465;28;20394;-75
2022/01/22 15:21:15;;;;;;;2.30;1.00;;;;;;;;;;4973104;28;20053;-75
2022/01/22 15:23:41;;;;;;;2.03;1.65;;;;;;;;;;4975844;28;20498;-75
2022/01/22 15:26:08;;;;;;;3.75;2.40;;;;;;;;;;4974694;28;20291;-75
2022/01/22 15:28:44;;;;;;;1.20;1.02;;;;;;;;;;4977202;28;20050;-74
2022/01/22 15:31:26;;;;;;;4.68;3.53;;;;;;;;;;4976820;28;20064;-75
2022/01/22 15:34:04;;;;;;;4.65;2.95;;;;;;;;;;4967887;28;20031;-74